Time;durP1;ratioP1;P1;durP2;ratioP2;P2;SDS_P1;SDS_P2;PMS_P1;PMS_P2;Temp;Humidity;BMP_temperature;BMP_pressure;BME280_temperature;BME280_humidity;BME280_pressure;Samples;Min_cycle;Max_cycle;Signal;HPM_P1;HPM_P2
2022/01/15 00:02:43;;;;;;;19.15;5.37;;;;;;;0.71;84.30;101299.00;2100035;83;20988;-91
2022/01/15 00:05:45;;;;;;;21.02;5.03;;;;;;;0.70;84.48;101297.29;2106741;83;21083;-89
2022/01/15 00:08:46;;;;;;;24.15;4.85;;;;;;;0.68;84.55;101305.69;2102793;83;21016;-90
2022/01/15 00:11:48;;;;;;;19.82;4.47;;;;;;;0.67;84.59;101300.89;2105495;84;21067;-88
2022/01/15 00:14:50;;;;;;;23.87;5.80;;;;;;;0.67;84.66;101302.20;2105747;84;21070;-90
2022/01/15 00:20:58;;;;;;;17.17;5.17;;;;;;;0.64;84.59;101304.13;2109336;83;21127;-87
2022/01/15 00:24:00;;;;;;;20.50;5.03;;;;;;;0.64;84.60;101308.05;2103174;83;21502;-88
2022/01/15 00:27:01;;;;;;;17.60;5.70;;;;;;;0.57;84.45;101306.66;2095062;83;21537;-88
2022/01/15 00:30:04;;;;;;;20.40;6.90;;;;;;;0.52;84.45;101302.11;2111275;83;21599;-89
2022/01/15 00:33:05;;;;;;;21.25;6.00;;;;;;;0.49;84.63;101303.56;2103267;83;21039;-88
2022/01/15 00:36:08;;;;;;;24.03;7.17;;;;;;;0.46;84.60;101291.50;2100646;83;21088;-88
2022/01/15 00:39:09;;;;;;;22.70;6.15;;;;;;;0.40;84.60;101282.19;2100926;84;21070;-88
2022/01/15 00:42:10;;;;;;;18.17;6.47;;;;;;;0.35;84.61;101284.64;2097318;83;21060;-88
2022/01/15 00:45:17;;;;;;;;;;;;;;;0.31;84.65;101278.72;2105741;83;20985;-87
2022/01/15 00:48:15;;;;;;;23.27;6.65;;;;;;;0.26;84.67;101278.55;2100118;84;20460;-87
2022/01/15 00:51:16;;;;;;;23.00;5.72;;;;;;;0.21;84.75;101302.25;2106845;83;20964;-88
2022/01/15 00:54:17;;;;;;;18.05;5.67;;;;;;;0.18;84.72;101295.88;2106691;83;21047;-88
2022/01/15 00:57:18;;;;;;;;;;;;;;;0.16;84.75;101300.30;2109838;83;20957;-88
2022/01/15 01:00:23;;;;;;;18.92;6.12;;;;;;;0.14;84.81;101312.58;2098166;83;20120;-88
2022/01/15 01:03:24;;;;;;;25.62;6.60;;;;;;;0.09;84.70;101318.02;2101848;83;21078;-87
2022/01/15 01:06:25;;;;;;;17.75;5.60;;;;;;;0.05;84.71;101316.45;2103483;84;21510;-90
2022/01/15 01:09:36;;;;;;;28.60;6.58;;;;;;;-0.03;84.64;101312.04;2099977;83;21047;-88
2022/01/15 01:25:23;;;;;;;21.50;6.42;;;;;;;-0.26;85.00;101296.97;2100643;83;21005;-88
2022/01/15 01:28:33;;;;;;;26.62;6.83;;;;;;;-0.31;84.99;101296.78;2104761;84;20987;-89
2022/01/15 01:31:39;;;;;;;26.62;7.45;;;;;;;-0.37;84.92;101304.88;2086663;83;21665;-89
2022/01/15 01:34:36;;;;;;;22.07;6.83;;;;;;;-0.42;84.99;101305.53;2070429;84;21048;-89
2022/01/15 01:37:41;;;;;;;19.30;6.15;;;;;;;-0.46;85.20;101310.89;2073614;84;21501;-89
2022/01/15 01:40:43;;;;;;;21.12;5.97;;;;;;;-0.49;85.25;101309.72;2078777;83;21099;-88
2022/01/15 01:43:51;;;;;;;21.07;6.00;;;;;;;-0.53;85.22;101310.78;2072249;84;21023;-89
2022/01/15 01:46:58;;;;;;;22.65;6.15;;;;;;;-0.57;85.20;101305.30;2070050;84;21015;-89
2022/01/15 01:49:52;;;;;;;22.07;6.20;;;;;;;-0.58;85.27;101312.73;2070078;84;21048;-89
2022/01/15 01:52:57;;;;;;;23.10;6.65;;;;;;;-0.59;85.33;101310.18;2072469;84;21605;-89
2022/01/15 01:55:58;;;;;;;21.50;6.10;;;;;;;-0.61;85.40;101308.96;2074741;84;21023;-88
2022/01/15 01:59:00;;;;;;;21.77;6.22;;;;;;;-0.63;85.42;101303.42;2071055;84;21017;-89
2022/01/15 02:02:03;;;;;;;23.77;6.37;;;;;;;-0.67;85.41;101306.62;2072866;84;21655;-88
2022/01/15 02:05:06;;;;;;;18.57;5.55;;;;;;;-0.67;85.59;101304.48;2074507;84;21002;-89
2022/01/15 02:08:07;;;;;;;23.85;6.05;;;;;;;-0.67;85.60;101313.60;2071456;84;21097;-88
2022/01/15 02:11:08;;;;;;;30.45;6.05;;;;;;;-0.70;85.67;101302.84;2070806;84;21603;-88
2022/01/15 02:14:09;;;;;;;25.17;6.45;;;;;;;-0.71;85.68;101315.47;2075573;84;21042;-88
2022/01/15 02:17:12;;;;;;;27.67;6.53;;;;;;;-0.73;85.66;101316.86;2071205;84;21054;-87
2022/01/15 02:23:35;;;;;;;27.70;7.10;;;;;;;-0.80;85.72;101314.10;2075731;84;21016;-88
2022/01/15 02:26:38;;;;;;;19.65;6.42;;;;;;;-0.83;85.70;101312.93;2071577;84;21106;-88
2022/01/15 02:29:39;;;;;;;23.07;6.12;;;;;;;-0.84;85.79;101311.71;2073505;84;21073;-88
2022/01/15 02:32:40;;;;;;;26.42;6.83;;;;;;;-0.86;85.88;101321.34;2055794;83;21050;-88
2022/01/15 02:35:43;;;;;;;23.50;6.80;;;;;;;-0.88;86.00;101315.34;2046534;86;21009;-88
2022/01/15 02:38:45;;;;;;;20.43;6.00;;;;;;;-0.92;85.94;101321.98;2044029;86;20997;-88
2022/01/15 02:41:46;;;;;;;27.22;7.37;;;;;;;-0.91;86.09;101324.97;2046150;86;21052;-88
2022/01/15 02:44:47;;;;;;;26.25;5.70;;;;;;;-0.93;86.16;101322.91;2043902;86;21009;-89
2022/01/15 02:48:01;;;;;;;23.57;6.37;;;;;;;-0.94;86.18;101321.19;2044340;86;21594;-88
2022/01/15 02:51:03;;;;;;;24.32;6.00;;;;;;;-0.93;86.23;101322.91;2048842;86;21483;-88
2022/01/15 02:54:06;;;;;;;21.70;6.65;;;;;;;-0.92;86.23;101319.38;2046831;86;21084;-89
2022/01/15 02:57:07;;;;;;;23.57;6.78;;;;;;;-0.92;86.19;101318.08;2043163;86;21056;-87
2022/01/15 03:00:09;;;;;;;23.35;6.22;;;;;;;-0.92;86.10;101315.93;2043091;86;21060;-89
2022/01/15 03:03:11;;;;;;;27.82;7.60;;;;;;;-0.96;86.12;101314.34;2044463;86;21504;-88
2022/01/15 03:06:15;;;;;;;20.15;6.37;;;;;;;-0.99;86.17;101303.59;2049213;86;21529;-88
2022/01/15 03:09:16;;;;;;;23.73;5.90;;;;;;;-1.00;86.25;101300.61;2045505;86;21022;-88
2022/01/15 03:12:17;;;;;;;19.23;6.60;;;;;;;-1.01;86.27;101296.78;2048245;86;21129;-89
2022/01/15 03:15:19;;;;;;;18.82;5.83;;;;;;;-1.03;86.30;101296.83;2051266;86;21030;-87
2022/01/15 03:18:22;;;;;;;19.65;5.65;;;;;;;-1.04;86.24;101303.39;2043681;86;21025;-87
2022/01/15 03:21:23;;;;;;;24.82;6.22;;;;;;;-1.06;86.25;101310.45;2050243;86;21135;-87
2022/01/15 03:24:24;;;;;;;19.10;5.20;;;;;;;-1.07;86.31;101313.94;2046032;86;21538;-89
2022/01/15 03:27:25;;;;;;;29.85;5.97;;;;;;;-1.06;86.41;101318.27;2050230;86;21093;-88
2022/01/15 03:30:26;;;;;;;20.30;6.55;;;;;;;-1.15;86.34;101298.19;2052582;86;21033;-89
2022/01/15 03:33:27;;;;;;;18.82;5.35;;;;;;;-1.11;86.32;101313.23;2086707;84;21049;-88
2022/01/15 03:36:29;;;;;;;27.15;5.92;;;;;;;-1.15;86.32;101309.07;2077146;84;21503;-87
2022/01/15 03:39:30;;;;;;;27.27;5.70;;;;;;;-1.18;86.33;101299.62;2088084;84;21104;-88
2022/01/15 03:42:31;;;;;;;26.70;6.22;;;;;;;-1.20;86.48;101296.22;2084798;84;21112;-88
2022/01/15 03:45:33;;;;;;;21.37;5.90;;;;;;;-1.21;86.57;101296.27;2084436;84;21001;-87
2022/01/15 03:48:34;;;;;;;20.52;5.62;;;;;;;-1.24;86.67;101291.19;2081949;84;21037;-88
2022/01/15 03:51:35;;;;;;;24.20;5.92;;;;;;;-1.23;86.71;101301.56;2087686;84;21049;-88
2022/01/15 03:54:37;;;;;;;21.77;5.58;;;;;;;-1.26;86.64;101299.55;2077213;84;21526;-89
2022/01/15 03:57:40;;;;;;;20.20;5.45;;;;;;;-1.25;86.73;101307.73;2080872;84;21589;-88
2022/01/15 04:00:41;;;;;;;19.35;6.25;;;;;;;-1.27;86.73;101305.64;2080792;84;21528;-86
2022/01/15 04:03:42;;;;;;;26.97;6.17;;;;;;;-1.29;86.77;101297.91;2085945;84;21010;-88
2022/01/15 04:06:43;;;;;;;24.52;6.25;;;;;;;-1.24;86.85;101301.61;2082824;84;20990;-88
2022/01/15 04:09:51;;;;;;;22.00;5.72;;;;;;;-1.25;86.98;101303.83;2078189;84;21039;-88
2022/01/15 04:12:52;;;;;;;22.32;5.72;;;;;;;-1.26;86.98;101311.27;2086413;84;21547;-88
2022/01/15 04:15:53;;;;;;;21.48;5.12;;;;;;;-1.29;86.97;101314.84;2078320;84;21838;-88
2022/01/15 04:18:59;;;;;;;26.42;5.22;;;;;;;-1.27;87.13;101323.41;2080323;84;20982;-88
2022/01/15 04:22:00;;;;;;;29.82;6.40;;;;;;;-1.26;87.17;101325.59;2080618;84;21508;-87
2022/01/15 04:25:02;;;;;;;16.60;5.67;;;;;;;-1.24;87.27;101329.83;2080102;84;21129;-88
2022/01/15 04:28:08;;;;;;;29.95;6.47;;;;;;;-1.22;87.29;101335.80;2084603;84;21081;-89
2022/01/15 04:31:09;;;;;;;24.65;6.78;;;;;;;-1.21;87.32;101337.94;2075182;84;21188;-87
2022/01/15 04:34:10;;;;;;;25.90;7.35;;;;;;;-1.21;87.31;101332.73;2072687;84;21100;-87
2022/01/15 04:37:15;;;;;;;20.90;5.72;;;;;;;-1.23;87.37;101335.41;2071337;85;20981;-87
2022/01/15 04:40:16;;;;;;;22.75;6.97;;;;;;;-1.23;87.51;101331.97;2070655;85;21088;-87
2022/01/15 04:43:17;;;;;;;23.42;6.15;;;;;;;-1.24;87.47;101338.94;2079759;84;20959;-89
2022/01/15 04:46:18;;;;;;;27.37;7.12;;;;;;;-1.24;87.47;101340.25;2079763;84;21060;-88
2022/01/15 04:49:20;;;;;;;19.90;6.47;;;;;;;-1.24;87.52;101347.19;2074048;83;21008;-89
2022/01/15 04:52:24;;;;;;;20.08;6.75;;;;;;;-1.25;87.46;101339.83;2077624;84;20984;-89
2022/01/15 04:55:25;;;;;;;27.13;6.12;;;;;;;-1.26;87.37;101342.52;2073996;85;21039;-89
2022/01/15 04:58:27;;;;;;;24.80;7.08;;;;;;;-1.28;87.38;101336.05;2073300;85;20974;-87
2022/01/15 05:01:29;;;;;;;24.45;8.05;;;;;;;-1.27;87.40;101338.20;2074022;85;21050;-87
2022/01/15 05:04:30;;;;;;;24.80;6.58;;;;;;;-1.33;87.26;101339.28;2072749;84;21015;-89
2022/01/15 05:07:31;;;;;;;26.12;7.03;;;;;;;-1.33;87.32;101347.55;2078215;84;21011;-88
2022/01/15 05:10:32;;;;;;;27.80;7.42;;;;;;;-1.35;87.25;101342.42;2076215;84;20965;-88
2022/01/15 05:13:36;;;;;;;33.00;7.53;;;;;;;-1.34;87.28;101345.41;2075161;84;21029;-87
2022/01/15 05:16:36;;;;;;;24.98;6.42;;;;;;;-1.38;87.13;101336.01;2079236;84;20978;-88
2022/01/15 05:19:37;;;;;;;26.20;7.33;;;;;;;-1.42;87.24;101343.56;2080482;84;21085;-87
2022/01/15 05:22:39;;;;;;;26.42;7.97;;;;;;;-1.46;87.37;101341.54;2082448;85;21006;-88
2022/01/15 05:25:40;;;;;;;27.98;8.00;;;;;;;-1.47;87.51;101346.33;2077993;84;21027;-87
2022/01/15 05:28:41;;;;;;;24.45;7.45;;;;;;;-1.46;87.58;101342.84;2080898;85;21075;-88
2022/01/15 05:31:42;;;;;;;23.52;7.80;;;;;;;-1.43;87.64;101343.18;2078792;83;21012;-88
2022/01/15 05:34:43;;;;;;;30.15;8.58;;;;;;;-1.39;87.88;101344.28;2069931;84;20997;-88
2022/01/15 05:37:44;;;;;;;27.98;9.23;;;;;;;-1.37;88.03;101343.77;2076575;84;20984;-86
2022/01/15 05:40:46;;;;;;;25.90;8.48;;;;;;;-1.34;88.16;101348.48;2078110;84;21038;-88
2022/01/15 05:43:47;;;;;;;25.45;10.18;;;;;;;-1.30;88.38;101350.88;2078034;84;21612;-87
2022/01/15 05:46:48;;;;;;;29.18;8.98;;;;;;;-1.26;88.33;101354.23;2076267;84;20998;-88
2022/01/15 05:49:51;;;;;;;29.63;8.23;;;;;;;-1.23;88.33;101354.95;2082350;84;20993;-88
2022/01/15 05:52:52;;;;;;;28.17;8.50;;;;;;;-1.20;88.52;101359.19;2071075;85;20995;-88
2022/01/15 05:55:53;;;;;;;23.07;8.85;;;;;;;-1.19;88.53;101356.51;2076728;84;21042;-88
2022/01/15 05:58:54;;;;;;;24.60;9.00;;;;;;;-1.16;88.57;101352.94;2073014;84;21004;-88
2022/01/15 06:01:55;;;;;;;28.62;8.68;;;;;;;-1.17;88.50;101355.16;2070417;84;21021;-87
2022/01/15 06:04:56;;;;;;;29.45;8.88;;;;;;;-1.18;88.56;101360.83;2076813;84;20976;-88
2022/01/15 06:07:57;;;;;;;;;;;;;;;-1.19;88.63;101361.72;2077147;84;21467;-88
2022/01/15 06:10:58;;;;;;;25.37;9.30;;;;;;;-1.19;88.59;101368.69;2079132;84;20120;-88
2022/01/15 06:13:59;;;;;;;22.35;9.20;;;;;;;-1.19;88.58;101376.50;2070213;84;21016;-88
2022/01/15 06:17:00;;;;;;;26.05;9.80;;;;;;;-1.17;88.60;101379.91;2080545;84;21014;-89
2022/01/15 06:20:02;;;;;;;30.43;8.78;;;;;;;-1.18;88.66;101375.61;2076837;84;20968;-86
2022/01/15 06:23:04;;;;;;;33.50;10.45;;;;;;;-1.18;88.73;101381.66;2074104;84;21004;-89
2022/01/15 06:26:05;;;;;;;32.65;11.15;;;;;;;-1.15;88.62;101385.45;2080981;85;20979;-88
2022/01/15 06:29:06;;;;;;;30.55;10.88;;;;;;;-1.15;88.59;101374.19;2077601;84;21546;-88
2022/01/15 06:32:08;;;;;;;30.48;10.55;;;;;;;-1.17;88.63;101370.33;2081004;84;21021;-89
2022/01/15 06:35:13;;;;;;;28.25;10.53;;;;;;;-1.20;88.65;101375.66;2081288;84;21554;-90
2022/01/15 06:38:15;;;;;;;28.10;10.60;;;;;;;-1.23;88.58;101379.70;2084054;84;21072;-87
2022/01/15 06:41:18;;;;;;;25.60;10.03;;;;;;;-1.23;88.62;101378.85;2083152;84;21014;-87
2022/01/15 06:44:20;;;;;;;26.55;11.33;;;;;;;-1.24;88.66;101376.70;2070044;84;20983;-88
2022/01/15 06:47:21;;;;;;;25.75;10.15;;;;;;;-1.25;88.81;101374.15;2075420;84;21585;-89
2022/01/15 06:50:24;;;;;;;23.50;9.40;;;;;;;-1.24;88.79;101376.70;2081252;84;20963;-88
2022/01/15 06:53:25;;;;;;;28.57;10.58;;;;;;;-1.24;88.84;101378.01;2086427;84;21013;-88
2022/01/15 06:56:27;;;;;;;28.20;15.13;;;;;;;-1.24;88.86;101372.80;2069713;84;21041;-89
2022/01/15 06:59:28;;;;;;;24.55;11.25;;;;;;;-1.21;88.93;101375.70;2079838;84;21036;-89
2022/01/15 07:02:30;;;;;;;32.73;11.22;;;;;;;-1.17;88.94;101376.84;2078625;84;21505;-88
2022/01/15 07:05:31;;;;;;;27.00;11.22;;;;;;;-1.17;88.87;101376.84;2075533;84;21073;-87
2022/01/15 07:08:32;;;;;;;31.10;11.28;;;;;;;-1.16;88.88;101372.02;2076209;84;21050;-89
2022/01/15 07:11:33;;;;;;;34.03;11.40;;;;;;;-1.17;88.94;101379.91;2079202;84;21506;-89
2022/01/15 07:14:34;;;;;;;27.70;11.08;;;;;;;-1.16;88.97;101381.59;2088454;84;21061;-89
2022/01/15 07:17:45;;;;;;;30.62;9.90;;;;;;;-1.15;88.96;101383.30;2077386;84;21502;-88
2022/01/15 07:20:48;;;;;;;27.70;10.95;;;;;;;-1.15;89.00;101375.48;2086203;84;21020;-88
2022/01/15 07:23:50;;;;;;;24.00;9.60;;;;;;;-1.13;89.15;101389.28;2061757;84;21056;-89
2022/01/15 07:26:51;;;;;;;26.50;10.68;;;;;;;-1.09;89.19;101389.56;2083982;84;20961;-87
2022/01/15 07:29:52;;;;;;;24.10;10.10;;;;;;;-1.06;89.27;101387.30;2076687;84;20955;-89
2022/01/15 07:32:53;;;;;;;25.88;11.33;;;;;;;-1.03;89.31;101385.41;2084284;83;21021;-88
2022/01/15 07:35:55;;;;;;;27.52;11.05;;;;;;;-0.98;89.47;101383.47;2076267;84;21069;-90
2022/01/15 07:38:57;;;;;;;28.38;11.75;;;;;;;-0.96;89.49;101388.17;2083661;84;21524;-89
2022/01/15 07:41:59;;;;;;;35.13;13.40;;;;;;;-0.93;89.54;101395.86;2072168;84;21020;-89
2022/01/15 07:45:06;;;;;;;32.85;11.22;;;;;;;-0.91;89.45;101387.51;2070901;84;21057;-89
2022/01/15 07:48:08;;;;;;;31.40;11.75;;;;;;;-0.88;89.51;101402.17;2084972;84;21065;-89
2022/01/15 07:51:09;;;;;;;28.50;10.90;;;;;;;-0.87;89.55;101403.02;2082523;84;21033;-89
2022/01/15 07:54:10;;;;;;;32.13;12.03;;;;;;;-0.85;89.65;101408.56;2083520;84;21074;-90
2022/01/15 07:57:11;;;;;;;32.48;11.28;;;;;;;-0.82;89.74;101412.80;2077756;84;21503;-88
2022/01/15 08:00:14;;;;;;;31.85;11.68;;;;;;;-0.77;89.80;101417.38;2078410;84;20993;-89
2022/01/15 08:03:15;;;;;;;33.33;12.23;;;;;;;-0.74;89.83;101416.80;2074116;84;21029;-88
2022/01/15 08:06:16;;;;;;;36.73;13.72;;;;;;;-0.70;89.84;101409.72;2075948;84;21002;-91
2022/01/15 08:09:17;;;;;;;29.25;11.00;;;;;;;-0.64;89.80;101419.89;2079233;84;20970;-89
2022/01/15 08:12:21;;;;;;;30.77;10.63;;;;;;;-0.58;89.81;101423.54;2084662;84;21111;-90
2022/01/15 08:15:23;;;;;;;40.55;12.60;;;;;;;-0.55;89.72;101426.02;2080496;84;21054;-91
2022/01/15 08:18:26;;;;;;;35.28;11.65;;;;;;;-0.51;89.74;101434.13;2078714;84;21582;-90
2022/01/15 08:21:27;;;;;;;48.45;14.30;;;;;;;-0.48;89.80;101438.33;2076848;84;21638;-88
2022/01/15 08:24:28;;;;;;;41.48;11.85;;;;;;;-0.49;89.71;101438.80;2078100;84;21037;-89
2022/01/15 08:27:29;;;;;;;30.17;11.63;;;;;;;-0.50;89.68;101433.66;2073016;84;21036;-89
2022/01/15 08:30:30;;;;;;;30.15;11.53;;;;;;;-0.51;89.61;101441.95;2082182;84;21546;-88
2022/01/15 08:33:33;;;;;;;30.97;10.20;;;;;;;-0.49;89.61;101442.70;2083393;84;21085;-90
2022/01/15 08:36:36;;;;;;;22.77;9.30;;;;;;;-0.45;89.58;101440.84;2087244;84;20994;-90
2022/01/15 08:39:37;;;;;;;31.12;10.05;;;;;;;-0.39;89.60;101450.17;2078518;84;21116;-86
2022/01/15 08:42:40;;;;;;;30.40;11.08;;;;;;;-0.32;89.67;101454.20;2082268;84;20990;-87
2022/01/15 08:45:42;;;;;;;26.07;11.93;;;;;;;-0.27;89.64;101447.88;2086268;84;21092;-88
2022/01/15 08:48:45;;;;;;;29.48;11.40;;;;;;;-0.22;89.55;101452.07;2078265;84;21021;-89
2022/01/15 08:51:46;;;;;;;30.37;10.80;;;;;;;-0.15;89.54;101449.11;2069169;84;21034;-92
2022/01/15 08:54:48;;;;;;;37.20;13.43;;;;;;;-0.15;89.33;101450.87;2076377;84;21076;-91
2022/01/15 08:57:49;;;;;;;38.42;14.38;;;;;;;-0.12;89.28;101460.72;2080351;84;21053;-89
2022/01/15 09:00:54;;;;;;;34.30;13.43;;;;;;;-0.06;89.26;101450.05;2087259;84;21113;-88
2022/01/15 09:03:55;;;;;;;33.35;13.28;;;;;;;-0.03;89.18;101461.66;2076405;84;21081;-89
2022/01/15 09:06:59;;;;;;;31.82;16.00;;;;;;;0.01;89.14;101452.39;2081830;84;20983;-89
2022/01/15 09:10:00;;;;;;;33.88;16.17;;;;;;;0.07;89.17;101460.78;2083427;84;21137;-89
2022/01/15 09:13:02;;;;;;;34.58;12.33;;;;;;;0.08;89.04;101466.84;2083328;84;21551;-87
2022/01/15 09:16:04;;;;;;;35.98;12.75;;;;;;;0.07;88.91;101472.53;2082876;84;21048;-87
2022/01/15 09:19:05;;;;;;;39.65;13.22;;;;;;;0.11;89.03;101472.77;2077284;84;21028;-87
2022/01/15 09:22:11;;;;;;;34.25;11.43;;;;;;;0.20;89.11;101478.08;2082118;84;21024;-88
2022/01/15 09:25:11;;;;;;;37.80;11.08;;;;;;;0.28;89.12;101475.95;2077214;84;21032;-89
2022/01/15 09:31:32;;;;;;;33.18;11.30;;;;;;;0.33;88.87;101472.69;2077479;84;21534;-91
2022/01/15 09:34:34;;;;;;;27.82;11.33;;;;;;;0.42;88.85;101481.88;2075903;84;21101;-91
2022/01/15 09:37:35;;;;;;;33.08;12.45;;;;;;;0.47;88.70;101488.20;2076760;84;21028;-92
2022/01/15 09:40:40;;;;;;;41.48;13.13;;;;;;;0.54;88.71;101479.20;2078717;85;21594;-89
2022/01/15 09:43:41;;;;;;;39.70;11.88;;;;;;;0.74;89.32;101469.98;2074449;84;21079;-89
2022/01/15 09:46:42;;;;;;;32.67;10.85;;;;;;;0.97;89.02;101471.98;2072572;84;21087;-90
2022/01/15 09:49:45;;;;;;;38.92;12.55;;;;;;;0.98;88.40;101469.28;2063538;85;21166;-89
2022/01/15 09:52:47;;;;;;;32.30;11.03;;;;;;;1.03;88.34;101462.55;2076079;85;21028;-89
2022/01/15 09:55:49;;;;;;;45.63;11.55;;;;;;;1.13;88.35;101459.89;2069450;85;21028;-88
2022/01/15 09:58:52;;;;;;;31.20;11.93;;;;;;;1.17;88.14;101462.73;2074435;85;21538;-91
2022/01/15 10:01:53;;;;;;;33.90;12.45;;;;;;;1.16;87.83;101460.20;2075585;83;21107;-90
2022/01/15 10:04:54;;;;;;;41.88;13.65;;;;;;;1.16;87.79;101457.59;2079348;84;21483;-91
2022/01/15 10:08:10;;;;;;;33.40;12.68;;;;;;;1.12;87.61;101454.25;2078286;84;21063;-87
2022/01/15 10:11:11;;;;;;;39.67;13.78;;;;;;;1.09;87.53;101453.94;2079147;84;21015;-92
2022/01/15 10:14:25;;;;;;;32.45;11.70;;;;;;;1.09;87.70;101456.55;2078741;84;21078;-88
2022/01/15 10:17:32;;;;;;;34.15;11.83;;;;;;;1.15;87.80;101451.95;2074106;83;20999;-89
2022/01/15 10:20:35;;;;;;;27.37;10.35;;;;;;;1.16;87.71;101453.67;2075756;84;21064;-90
2022/01/15 10:24:00;;;;;;;29.95;10.08;;;;;;;1.23;87.84;101448.52;2075513;85;21033;-88
2022/01/15 10:27:33;;;;;;;34.33;12.98;;;;;;;1.27;87.75;101450.92;2072825;84;21515;-91
2022/01/15 10:30:34;;;;;;;35.78;11.78;;;;;;;1.22;87.52;101461.22;2066957;85;21051;-92
2022/01/15 10:33:35;;;;;;;29.67;10.85;;;;;;;1.19;87.46;101466.59;2073550;83;21053;-89
2022/01/15 10:36:37;;;;;;;35.52;10.53;;;;;;;1.16;87.62;101464.97;2078765;84;20981;-88
2022/01/15 10:39:38;;;;;;;38.17;11.25;;;;;;;1.13;87.46;101461.20;2082366;84;21492;-88
2022/01/15 10:42:40;;;;;;;39.70;11.45;;;;;;;1.14;87.59;101464.66;2085165;84;21037;-88
2022/01/15 10:45:52;;;;;;;36.65;11.70;;;;;;;1.13;87.58;101459.89;2077850;84;20971;-89
2022/01/15 10:48:53;;;;;;;61.25;19.25;;;;;;;1.15;87.63;101458.03;2083256;84;21009;-89
2022/01/15 10:52:20;;;;;;;43.17;14.55;;;;;;;1.20;87.69;101459.12;2077636;84;21064;-90
2022/01/15 10:55:31;;;;;;;54.75;17.60;;;;;;;1.18;87.54;101461.80;2078423;84;21606;-89
2022/01/15 10:58:32;;;;;;;49.55;16.02;;;;;;;1.19;87.62;101460.06;2080157;84;21010;-89
2022/01/15 11:01:35;;;;;;;32.60;11.43;;;;;;;1.20;87.60;101459.12;2082973;84;21116;-89
2022/01/15 11:04:36;;;;;;;32.45;12.53;;;;;;;1.13;87.34;101454.66;2075958;84;21054;-87
2022/01/15 11:07:37;;;;;;;33.10;11.53;;;;;;;1.12;87.52;101458.17;2076299;84;21018;-88
2022/01/15 11:11:00;;;;;;;30.12;10.95;;;;;;;1.08;87.50;101454.88;2077945;84;21524;-88
2022/01/15 11:14:01;;;;;;;33.42;10.68;;;;;;;1.05;87.50;101455.48;2084035;84;21057;-87
2022/01/15 11:17:04;;;;;;;39.55;10.85;;;;;;;1.06;87.62;101452.78;2083823;84;21046;-88
2022/01/15 11:20:07;;;;;;;37.45;12.90;;;;;;;1.11;87.73;101449.95;2085711;84;21002;-88
2022/01/15 11:23:08;;;;;;;28.83;10.03;;;;;;;1.13;87.74;101445.52;2081047;84;21060;-89
2022/01/15 11:26:13;;;;;;;25.60;8.93;;;;;;;1.19;87.75;101453.05;2086410;84;21059;-87
2022/01/15 11:29:15;;;;;;;38.48;11.73;;;;;;;1.24;87.73;101444.53;2080227;84;21007;-88
2022/01/15 11:32:17;;;;;;;29.32;10.90;;;;;;;1.25;87.57;101449.30;2082733;84;21029;-88
2022/01/15 11:35:18;;;;;;;27.32;10.23;;;;;;;1.23;87.60;101445.44;2064873;84;21076;-87
2022/01/15 11:38:43;;;;;;;37.17;11.85;;;;;;;1.25;87.62;101451.91;2056135;86;21040;-87
2022/01/15 11:41:52;;;;;;;40.35;11.20;;;;;;;1.27;87.63;101444.84;2019804;86;21037;-86
2022/01/15 11:44:53;;;;;;;36.00;12.43;;;;;;;1.33;87.61;101441.93;2060235;86;21020;-89
2022/01/15 11:48:21;;;;;;;29.45;10.48;;;;;;;1.34;87.53;101448.38;2054021;86;21125;-90
2022/01/15 11:51:26;;;;;;;38.38;11.48;;;;;;;1.41;87.61;101442.84;2059280;86;21080;-88
2022/01/15 11:54:27;;;;;;;39.78;12.25;;;;;;;1.41;87.40;101442.84;2058311;86;20997;-88
2022/01/15 11:57:45;;;;;;;33.65;10.88;;;;;;;1.40;87.32;101446.39;2058250;86;21132;-90
2022/01/15 12:00:48;;;;;;;39.63;11.78;;;;;;;1.40;87.31;101452.45;2059127;86;21111;-88
2022/01/15 12:03:49;;;;;;;25.97;10.28;;;;;;;1.41;87.31;101450.69;2062452;86;21046;-87
2022/01/15 12:07:16;;;;;;;29.92;11.70;;;;;;;1.45;87.33;101449.16;2060081;86;21018;-88
2022/01/15 12:10:18;;;;;;;30.40;10.55;;;;;;;1.49;87.20;101460.31;2058836;86;21086;-89
2022/01/15 12:13:26;;;;;;;29.02;9.93;;;;;;;1.53;87.27;101450.09;2054930;86;21504;-87
2022/01/15 12:16:31;;;;;;;32.05;10.38;;;;;;;1.59;87.24;101441.09;2058169;85;21507;-89
2022/01/15 12:19:40;;;;;;;33.48;10.15;;;;;;;1.60;87.04;101439.70;2050450;86;21060;-88
2022/01/15 12:22:51;;;;;;;50.00;11.75;;;;;;;1.60;86.97;101437.08;2060005;86;21109;-89
2022/01/15 12:25:55;;;;;;;39.92;11.75;;;;;;;1.55;86.74;101427.33;2051606;86;21040;-89
2022/01/15 12:28:56;;;;;;;38.58;11.00;;;;;;;1.57;86.77;101421.07;2050146;86;21471;-89
2022/01/15 12:31:58;;;;;;;37.23;10.03;;;;;;;1.63;87.00;101415.16;2049429;86;21049;-87
2022/01/15 12:35:00;;;;;;;39.53;11.08;;;;;;;1.71;87.08;101405.98;2050318;85;21532;-90
2022/01/15 12:38:16;;;;;;;41.58;11.60;;;;;;;1.82;87.03;101403.29;2049166;87;21046;-88
2022/01/15 12:41:18;;;;;;;30.80;11.45;;;;;;;1.83;86.43;101393.19;2050169;86;21110;-89
2022/01/15 12:44:19;;;;;;;45.95;14.25;;;;;;;1.84;86.71;101390.98;2050886;85;21629;-88
2022/01/15 12:47:22;;;;;;;38.67;12.95;;;;;;;1.89;86.59;101396.83;2053797;85;21505;-87
2022/01/15 12:50:23;;;;;;;36.00;12.13;;;;;;;1.87;86.35;101394.74;2048889;85;21048;-90
2022/01/15 12:53:29;;;;;;;31.35;11.20;;;;;;;1.86;86.33;101394.34;2048418;86;21077;-89
2022/01/15 12:56:36;;;;;;;45.78;15.43;;;;;;;1.84;86.16;101384.44;2053248;85;21056;-88
2022/01/15 12:59:38;;;;;;;31.97;11.33;;;;;;;1.91;86.41;101380.09;2049693;85;21023;-89
2022/01/15 13:02:40;;;;;;;25.00;9.30;;;;;;;1.94;86.08;101377.77;2049530;85;21519;-89
2022/01/15 13:05:45;;;;;;;38.45;12.63;;;;;;;1.98;86.02;101375.39;2046317;86;21120;-88
2022/01/15 13:08:47;;;;;;;34.35;9.30;;;;;;;2.02;85.94;101369.90;2028306;87;22251;-88
2022/01/15 13:11:58;;;;;;;34.27;9.68;;;;;;;2.05;85.88;101371.52;2050811;87;21077;-90
2022/01/15 13:14:59;;;;;;;39.35;11.50;;;;;;;2.08;85.85;101370.50;2046901;87;21050;-88
2022/01/15 13:18:04;;;;;;;29.05;7.95;;;;;;;2.10;85.90;101364.27;2049991;85;21582;-88
2022/01/15 13:21:13;;;;;;;27.73;8.03;;;;;;;2.11;85.54;101361.17;2045761;87;21026;-89
2022/01/15 13:24:14;;;;;;;22.62;8.40;;;;;;;2.03;85.29;101360.30;2049689;85;21023;-88
2022/01/15 13:27:21;;;;;;;28.92;9.15;;;;;;;2.01;85.38;101367.38;2049926;85;21002;-90
2022/01/15 13:30:24;;;;;;;32.60;8.65;;;;;;;2.00;85.23;101378.32;2050934;87;21050;-89
2022/01/15 13:33:44;;;;;;;36.73;9.60;;;;;;;1.93;84.90;101367.77;2051950;87;21001;-87
2022/01/15 13:36:47;;;;;;;33.33;8.80;;;;;;;1.91;85.10;101360.92;2050355;87;21059;-89
2022/01/15 13:39:49;;;;;;;25.95;8.43;;;;;;;1.90;85.19;101368.41;2049962;87;21115;-87
2022/01/15 13:42:50;;;;;;;29.60;9.00;;;;;;;1.90;85.26;101373.17;2050322;86;21072;-90
2022/01/15 13:45:52;;;;;;;32.28;9.18;;;;;;;1.90;85.06;101372.33;2050516;85;21019;-89
2022/01/15 13:49:09;;;;;;;33.35;8.50;;;;;;;1.88;84.83;101371.56;2048373;86;21475;-88
2022/01/15 13:55:30;;;;;;;30.90;9.28;;;;;;;1.80;84.71;101366.71;1987494;89;21182;-88
2022/01/15 13:58:31;;;;;;;37.95;9.88;;;;;;;1.76;84.60;101371.73;2047097;85;21042;-90
2022/01/15 14:01:37;;;;;;;29.65;9.03;;;;;;;1.78;84.73;101375.97;2031937;87;21094;-90
2022/01/15 14:04:39;;;;;;;28.47;8.73;;;;;;;1.74;84.62;101374.42;2050248;86;21031;-88
2022/01/15 14:07:42;;;;;;;35.40;10.03;;;;;;;1.69;84.43;101362.50;2047656;86;21573;-87
2022/01/15 14:10:44;;;;;;;34.65;12.60;;;;;;;1.63;84.55;101366.75;2051409;87;21474;-89
2022/01/15 14:13:45;;;;;;;31.95;9.25;;;;;;;1.60;84.55;101374.75;2047616;86;20996;-89
2022/01/15 14:17:04;;;;;;;32.15;9.85;;;;;;;1.56;84.48;101368.38;2043496;87;21051;-88
2022/01/15 14:23:39;;;;;;;35.30;9.23;;;;;;;1.45;84.29;101368.54;2048028;87;21025;-87
2022/01/15 14:26:46;;;;;;;29.48;9.20;;;;;;;1.36;84.23;101369.02;2049213;85;21027;-89
2022/01/15 14:29:48;;;;;;;35.38;9.60;;;;;;;1.28;84.29;101358.46;2050557;87;21150;-90
2022/01/15 14:32:49;;;;;;;33.28;8.98;;;;;;;1.21;84.31;101358.84;2050555;87;21125;-87